createdAt,value
2018-08-11T00:00:15.712Z,22.02
2018-08-11T00:00:41.863Z,22.04
2018-08-11T00:01:07.991Z,21.98
2018-08-11T00:01:34.133Z,21.98
2018-08-11T00:02:00.266Z,21.99
2018-08-11T00:02:26.409Z,21.95
2018-08-11T00:02:52.563Z,22
2018-08-11T00:03:18.697Z,21.96
2018-08-11T00:03:44.838Z,22.02
2018-08-11T00:04:10.972Z,22.02
2018-08-11T00:04:37.134Z,21.99
2018-08-11T00:05:03.299Z,22.06
2018-08-11T00:05:29.437Z,22.06
2018-08-11T00:05:55.575Z,21.99
2018-08-11T00:06:21.719Z,22.06
2018-08-11T00:06:47.855Z,21.99
2018-08-11T00:07:13.993Z,22
2018-08-11T00:07:40.135Z,21.98
2018-08-11T00:08:06.277Z,22.02
2018-08-11T00:08:32.432Z,22.02
2018-08-11T00:08:58.567Z,22.06
2018-08-11T00:09:24.707Z,22.02
2018-08-11T00:09:50.834Z,22.06
2018-08-11T00:10:16.998Z,21.95
2018-08-11T00:10:43.162Z,21.92
2018-08-11T00:11:09.290Z,21.93
2018-08-11T00:11:35.439Z,21.92
2018-08-11T00:12:01.579Z,21.92
2018-08-11T00:12:27.716Z,21.93
2018-08-11T00:12:53.847Z,21.91
2018-08-11T00:13:19.987Z,22
2018-08-11T00:13:46.121Z,21.98
2018-08-11T00:14:12.255Z,21.88
2018-08-11T00:14:38.398Z,21.95
2018-08-11T00:15:04.529Z,21.95
2018-08-11T00:15:30.670Z,21.93
2018-08-11T00:15:56.832Z,21.98
2018-08-11T00:16:22.966Z,21.96
2018-08-11T00:16:49.106Z,21.88
2018-08-11T00:17:15.238Z,21.93
2018-08-11T00:17:44.410Z,21.95
2018-08-11T00:18:10.544Z,21.96
2018-08-11T00:18:36.681Z,21.92
2018-08-11T00:19:02.815Z,21.82
2018-08-11T00:19:28.948Z,21.88
2018-08-11T00:19:55.086Z,21.89
2018-08-11T00:20:21.226Z,21.89
2018-08-11T00:20:47.365Z,21.88
2018-08-11T00:21:13.503Z,21.91
2018-08-11T00:21:39.638Z,21.98
2018-08-11T00:22:05.777Z,21.91
2018-08-11T00:22:31.912Z,21.92
2018-08-11T00:22:58.042Z,21.92
2018-08-11T00:23:24.177Z,21.91
2018-08-11T00:23:50.304Z,21.93
2018-08-11T00:24:16.442Z,21.95
2018-08-11T00:24:42.580Z,21.99
2018-08-11T00:25:08.713Z,21.98
2018-08-11T00:25:34.851Z,21.98
2018-08-11T00:26:00.992Z,22.07
2018-08-11T00:26:27.130Z,22
2018-08-11T00:26:53.259Z,21.99
2018-08-11T00:27:19.394Z,21.92
2018-08-11T00:27:45.533Z,21.92
2018-08-11T00:28:11.694Z,21.92
2018-08-11T00:28:37.831Z,21.91
2018-08-11T00:29:03.970Z,21.96
2018-08-11T00:29:30.143Z,21.95
2018-08-11T00:29:56.282Z,21.96
2018-08-11T00:30:22.416Z,21.91
2018-08-11T00:30:48.552Z,21.93
2018-08-11T00:31:14.738Z,21.93
2018-08-11T00:31:40.882Z,21.88
2018-08-11T00:32:07.019Z,21.88
2018-08-11T00:32:33.177Z,21.83
2018-08-11T00:32:59.310Z,21.79
2018-08-11T00:33:25.449Z,21.79
2018-08-11T00:33:51.630Z,21.75
2018-08-11T00:34:17.759Z,21.76
2018-08-11T00:34:43.924Z,21.83
2018-08-11T00:35:10.064Z,21.75
2018-08-11T00:35:36.217Z,21.82
2018-08-11T00:36:02.372Z,21.83
2018-08-11T00:36:28.590Z,21.85
2018-08-11T00:36:54.646Z,21.77
2018-08-11T00:37:20.780Z,21.83
2018-08-11T00:37:46.945Z,21.91
2018-08-11T00:38:13.082Z,21.88
2018-08-11T00:38:39.236Z,21.88
2018-08-11T00:39:05.399Z,21.93
2018-08-11T00:39:31.536Z,21.91
2018-08-11T00:39:57.671Z,21.89
2018-08-11T00:40:23.802Z,21.93
2018-08-11T00:40:49.943Z,21.82
2018-08-11T00:41:16.080Z,21.83
2018-08-11T00:41:42.209Z,21.83
2018-08-11T00:42:08.346Z,21.89
2018-08-11T00:42:34.479Z,21.91
2018-08-11T00:43:00.603Z,21.98
2018-08-11T00:43:26.743Z,21.98
2018-08-11T00:43:52.870Z,21.92
2018-08-11T00:44:19.007Z,21.95
2018-08-11T00:44:45.151Z,21.96
2018-08-11T00:45:11.276Z,22.04
2018-08-11T00:45:37.416Z,21.93
2018-08-11T00:46:03.548Z,21.96
2018-08-11T00:46:29.711Z,21.93
2018-08-11T00:46:55.852Z,21.89
2018-08-11T00:47:21.993Z,21.88
2018-08-11T00:47:48.129Z,21.93
2018-08-11T00:48:14.293Z,21.82
2018-08-11T00:48:40.424Z,21.82
2018-08-11T00:49:06.585Z,21.76
2018-08-11T00:49:32.830Z,21.83
2018-08-11T00:49:58.911Z,21.69
2018-08-11T00:50:25.056Z,21.77
2018-08-11T00:50:51.194Z,21.73
2018-08-11T00:51:17.329Z,21.72
2018-08-11T00:51:43.480Z,21.62
2018-08-11T00:52:09.619Z,21.58
2018-08-11T00:52:35.754Z,21.58
2018-08-11T00:53:01.919Z,21.6
2018-08-11T00:53:28.054Z,21.57
2018-08-11T00:53:54.191Z,21.58
2018-08-11T00:54:20.341Z,21.57
2018-08-11T00:54:46.483Z,21.5
2018-08-11T00:55:12.619Z,21.5
2018-08-11T00:55:38.752Z,21.5
2018-08-11T00:56:04.895Z,21.55
2018-08-11T00:56:31.032Z,21.54
2018-08-11T00:56:57.165Z,21.54
2018-08-11T00:57:23.302Z,21.52
2018-08-11T00:57:49.438Z,21.5
2018-08-11T00:58:15.576Z,21.48
2018-08-11T00:58:41.712Z,21.43
2018-08-11T00:59:07.858Z,21.46
2018-08-11T00:59:34.015Z,21.39
2018-08-11T01:00:00.154Z,21.33
2018-08-11T01:00:26.306Z,21.22
2018-08-11T01:00:52.439Z,21.32
2018-08-11T01:01:18.572Z,21.35
2018-08-11T01:01:44.722Z,21.25
2018-08-11T01:02:10.891Z,21.3
2018-08-11T01:02:37.019Z,21.29
2018-08-11T01:03:03.165Z,21.32
2018-08-11T01:03:29.306Z,21.32
2018-08-11T01:03:55.436Z,21.22
2018-08-11T01:04:21.696Z,21.22
2018-08-11T01:04:47.923Z,21.22
2018-08-11T01:05:14.081Z,21.09
2018-08-11T01:05:40.314Z,21.07
2018-08-11T01:06:06.468Z,21.11
2018-08-11T01:06:32.602Z,21.07
2018-08-11T01:06:58.769Z,21.06
2018-08-11T01:07:24.903Z,20.96
2018-08-11T01:07:51.224Z,20.95
2018-08-11T01:08:17.545Z,20.95
2018-08-11T01:08:43.702Z,20.96
2018-08-11T01:09:09.871Z,20.95
2018-08-11T01:09:36.003Z,21.02
2018-08-11T01:10:02.143Z,20.96
2018-08-11T01:10:28.307Z,20.88
2018-08-11T01:10:54.480Z,20.85
2018-08-11T01:11:20.604Z,20.95
2018-08-11T01:11:46.738Z,20.85
2018-08-11T01:12:12.875Z,20.84
2018-08-11T01:12:39.180Z,20.85
2018-08-11T01:13:05.389Z,20.78
2018-08-11T01:13:31.499Z,20.74
2018-08-11T01:13:57.618Z,20.78
2018-08-11T01:14:23.751Z,20.77
2018-08-11T01:14:49.887Z,20.69
2018-08-11T01:15:16.077Z,20.65
2018-08-11T01:15:42.232Z,20.67
2018-08-11T01:16:08.389Z,20.67
2018-08-11T01:16:34.732Z,20.63
2018-08-11T01:17:00.856Z,20.62
2018-08-11T01:17:27.019Z,20.65
2018-08-11T01:17:53.415Z,20.62
2018-08-11T01:18:19.590Z,20.65
2018-08-11T01:18:45.699Z,20.6
2018-08-11T01:19:11.833Z,20.59
2018-08-11T01:19:37.968Z,20.6
2018-08-11T01:20:04.107Z,20.63
2018-08-11T01:20:30.267Z,20.55
2018-08-11T01:20:56.402Z,20.59
2018-08-11T01:21:22.543Z,20.6
2018-08-11T01:21:48.756Z,20.65
2018-08-11T01:22:14.892Z,20.55
2018-08-11T01:22:41.077Z,20.63
2018-08-11T01:23:07.212Z,20.65
2018-08-11T01:23:33.350Z,20.63
2018-08-11T01:23:59.482Z,20.66
2018-08-11T01:24:25.669Z,20.59
2018-08-11T01:24:51.807Z,20.66
2018-08-11T01:25:18.048Z,20.59
2018-08-11T01:25:44.161Z,20.59
2018-08-11T01:26:10.311Z,20.69
2018-08-11T01:26:36.479Z,20.69
2018-08-11T01:27:02.857Z,20.59
2018-08-11T01:27:28.988Z,20.59
2018-08-11T01:27:55.148Z,20.56
2018-08-11T01:28:21.488Z,20.5
2018-08-11T01:28:47.632Z,20.51
2018-08-11T01:29:13.806Z,20.5
2018-08-11T01:29:40.085Z,20.4
2018-08-11T01:30:06.181Z,20.48
2018-08-11T01:30:32.312Z,20.5
2018-08-11T01:30:58.453Z,20.44
2018-08-11T01:31:24.588Z,20.43
2018-08-11T01:31:50.731Z,20.37
2018-08-11T01:32:16.860Z,20.39
2018-08-11T01:32:42.998Z,20.37
2018-08-11T01:33:09.266Z,20.4
2018-08-11T01:33:35.435Z,20.26
2018-08-11T01:34:01.684Z,20.32
2018-08-11T01:34:27.891Z,20.28
2018-08-11T01:34:54.031Z,20.26
2018-08-11T01:35:20.170Z,20.26
2018-08-11T01:35:46.351Z,20.22
2018-08-11T01:36:12.510Z,20.22
2018-08-11T01:36:38.674Z,20.18
2018-08-11T01:37:05.007Z,20.13
2018-08-11T01:37:31.193Z,20.19
2018-08-11T01:37:57.334Z,20.02
2018-08-11T01:38:23.486Z,20.04
2018-08-11T01:38:49.625Z,20
2018-08-11T01:39:15.758Z,19.95
2018-08-11T01:39:41.896Z,19.91
2018-08-11T01:40:08.062Z,19.89
2018-08-11T01:40:34.194Z,19.84
2018-08-11T01:41:00.373Z,19.86
2018-08-11T01:41:26.534Z,19.81
2018-08-11T01:41:52.688Z,19.81
2018-08-11T01:42:18.822Z,19.82
2018-08-11T01:42:44.955Z,19.81
2018-08-11T01:43:11.090Z,19.81
2018-08-11T01:43:37.224Z,19.76
2018-08-11T01:44:03.417Z,19.81
2018-08-11T01:44:29.547Z,19.7
2018-08-11T01:44:56.078Z,19.67
2018-08-11T01:45:22.427Z,19.7
2018-08-11T01:45:48.582Z,19.62
2018-08-11T01:46:14.720Z,19.59
2018-08-11T01:46:40.863Z,19.55
2018-08-11T01:47:06.997Z,19.58
2018-08-11T01:47:33.155Z,19.59
2018-08-11T01:47:59.290Z,19.49
2018-08-11T01:48:25.456Z,19.44
2018-08-11T01:48:51.752Z,19.49
2018-08-11T01:49:17.925Z,19.54
2018-08-11T01:49:44.067Z,19.48
2018-08-11T01:50:10.198Z,19.51
2018-08-11T01:50:36.338Z,19.49
2018-08-11T01:51:02.490Z,19.51
2018-08-11T01:51:28.637Z,19.49
2018-08-11T01:51:54.763Z,19.44
2018-08-11T01:52:20.906Z,19.41
2018-08-11T01:52:47.219Z,19.49
2018-08-11T01:53:13.485Z,19.41
2018-08-11T01:53:39.648Z,19.39
2018-08-11T01:54:05.816Z,19.41
2018-08-11T01:54:31.956Z,19.31
2018-08-11T01:54:58.087Z,19.4
2018-08-11T01:55:24.227Z,19.37
2018-08-11T01:55:50.360Z,19.33
2018-08-11T01:56:16.777Z,19.37
2018-08-11T01:56:43.004Z,19.47
2018-08-11T01:57:09.158Z,19.31
2018-08-11T01:57:35.295Z,19.41
2018-08-11T01:58:01.442Z,19.31
2018-08-11T01:58:27.585Z,19.31
2018-08-11T01:58:53.789Z,19.34
2018-08-11T01:59:20.139Z,19.29
2018-08-11T01:59:46.493Z,19.29
2018-08-11T02:00:12.650Z,19.24
2018-08-11T02:00:38.887Z,19.27
2018-08-11T02:01:05.032Z,19.26
2018-08-11T02:01:31.179Z,19.24
2018-08-11T02:01:57.311Z,19.21
2018-08-11T02:02:23.467Z,19.15
2018-08-11T02:02:49.733Z,19.14
2018-08-11T02:03:16.066Z,19.16
2018-08-11T02:03:42.229Z,19.07
2018-08-11T02:04:08.380Z,19.07
2018-08-11T02:04:34.510Z,19.02
2018-08-11T02:05:00.648Z,19.09
2018-08-11T02:05:26.818Z,19.07
2018-08-11T02:05:52.959Z,19.14
2018-08-11T02:06:19.097Z,19.11
2018-08-11T02:06:45.258Z,18.99
2018-08-11T02:07:11.443Z,19.02
2018-08-11T02:07:37.579Z,19.02
2018-08-11T02:08:03.751Z,19
2018-08-11T02:08:29.870Z,18.88
2018-08-11T02:08:56.036Z,18.89
2018-08-11T02:09:22.176Z,18.83
2018-08-11T02:09:48.318Z,18.89
2018-08-11T02:10:14.447Z,18.89
2018-08-11T02:10:40.610Z,18.9
2018-08-11T02:11:07.081Z,18.83
2018-08-11T02:11:33.236Z,18.86
2018-08-11T02:11:59.407Z,18.86
2018-08-11T02:12:25.532Z,18.92
2018-08-11T02:12:51.680Z,18.88
2018-08-11T02:13:17.815Z,18.86
2018-08-11T02:13:43.955Z,18.86
2018-08-11T02:14:10.082Z,18.75
2018-08-11T02:14:36.253Z,18.75
2018-08-11T02:15:02.500Z,18.81
2018-08-11T02:15:28.716Z,18.74
2018-08-11T02:15:54.829Z,18.7
2018-08-11T02:16:20.995Z,18.78
2018-08-11T02:16:47.139Z,18.68
2018-08-11T02:17:13.277Z,18.75
2018-08-11T02:17:39.411Z,18.74
2018-08-11T02:18:05.581Z,18.74
2018-08-11T02:18:31.715Z,18.74
2018-08-11T02:18:57.851Z,18.74
2018-08-11T02:19:24.101Z,18.7
2018-08-11T02:19:50.226Z,18.68
2018-08-11T02:20:16.427Z,18.7
2018-08-11T02:20:42.569Z,18.56
2018-08-11T02:21:08.737Z,18.62
2018-08-11T02:21:34.885Z,18.6
2018-08-11T02:22:01.046Z,18.58
2018-08-11T02:22:27.177Z,18.52
2018-08-11T02:22:53.482Z,18.49
2018-08-11T02:23:19.604Z,18.5
2018-08-11T02:23:45.743Z,18.53
2018-08-11T02:24:11.883Z,18.44
2018-08-11T02:24:38.075Z,18.53
2018-08-11T02:25:04.213Z,18.49
2018-08-11T02:25:30.349Z,18.47
2018-08-11T02:25:56.485Z,18.5
2018-08-11T02:26:22.620Z,18.4
2018-08-11T02:26:48.780Z,18.4
2018-08-11T02:27:15.207Z,18.5
2018-08-11T02:27:41.277Z,18.41
2018-08-11T02:28:07.423Z,18.4
2018-08-11T02:28:33.558Z,18.44
2018-08-11T02:28:59.691Z,18.4
2018-08-11T02:29:25.847Z,18.41
2018-08-11T02:29:51.982Z,18.4
2018-08-11T02:30:18.169Z,18.4
2018-08-11T02:30:44.378Z,18.43
2018-08-11T02:31:10.620Z,18.35
2018-08-11T02:31:36.751Z,18.41
2018-08-11T02:32:02.918Z,18.33
2018-08-11T02:32:29.050Z,18.33
2018-08-11T02:32:55.232Z,18.31
2018-08-11T02:33:21.400Z,18.31
2018-08-11T02:33:47.520Z,18.29
2018-08-11T02:34:13.698Z,18.26
2018-08-11T02:34:39.889Z,18.33
2018-08-11T02:35:06.323Z,18.25
2018-08-11T02:35:32.581Z,18.29
2018-08-11T02:35:58.719Z,18.29
2018-08-11T02:36:24.851Z,18.28
2018-08-11T02:36:51.028Z,18.28
2018-08-11T02:37:17.179Z,18.25
2018-08-11T02:37:43.362Z,18.22
2018-08-11T02:38:09.761Z,18.19
2018-08-11T02:38:36.069Z,18.22
2018-08-11T02:39:02.250Z,18.15
2018-08-11T02:39:28.412Z,18.16
2018-08-11T02:39:54.548Z,18.19
2018-08-11T02:40:20.723Z,18.13
2018-08-11T02:40:46.877Z,18.11
2018-08-11T02:41:13.031Z,18.19
2018-08-11T02:41:39.176Z,18.05
2018-08-11T02:42:05.500Z,18.19
2018-08-11T02:42:31.914Z,18.22
2018-08-11T02:42:58.043Z,18.23
2018-08-11T02:43:24.203Z,18.16
2018-08-11T02:43:50.338Z,18.16
2018-08-11T02:44:16.495Z,18.15
2018-08-11T02:44:42.670Z,18.08
2018-08-11T02:45:08.805Z,18.13
2018-08-11T02:45:35.021Z,18.15
2018-08-11T02:46:01.206Z,18.11
2018-08-11T02:46:27.348Z,18.04
2018-08-11T02:46:53.486Z,18
2018-08-11T02:47:19.619Z,17.97
2018-08-11T02:47:45.797Z,17.92
2018-08-11T02:48:11.953Z,17.92
2018-08-11T02:48:38.084Z,17.87
2018-08-11T02:49:04.220Z,17.95
2018-08-11T02:49:30.382Z,17.89
2018-08-11T02:49:56.535Z,17.86
2018-08-11T02:50:22.670Z,17.9
2018-08-11T02:50:48.799Z,17.85
2018-08-11T02:51:14.958Z,17.83
2018-08-11T02:51:41.117Z,17.8
2018-08-11T02:52:07.250Z,17.76
2018-08-11T02:52:33.389Z,17.85
2018-08-11T02:52:59.558Z,17.86
2018-08-11T02:53:25.753Z,17.83
2018-08-11T02:53:51.875Z,17.83
2018-08-11T02:54:18.010Z,17.87
2018-08-11T02:54:44.136Z,17.74
2018-08-11T02:55:10.274Z,17.78
2018-08-11T02:55:36.426Z,17.64
2018-08-11T02:56:02.568Z,17.59
2018-08-11T02:56:28.749Z,17.54
2018-08-11T02:56:54.883Z,17.49
2018-08-11T02:57:21.020Z,17.51
2018-08-11T02:57:47.196Z,17.49
2018-08-11T02:58:13.324Z,17.54
2018-08-11T02:58:39.465Z,17.49
2018-08-11T02:59:05.596Z,17.52
2018-08-11T02:59:31.736Z,17.48
2018-08-11T02:59:57.947Z,17.46
2018-08-11T03:00:24.082Z,17.6
2018-08-11T03:00:50.238Z,17.63
2018-08-11T03:01:16.389Z,17.48
2018-08-11T03:01:42.519Z,17.46
2018-08-11T03:02:08.680Z,17.45
2018-08-11T03:02:34.941Z,17.45
2018-08-11T03:03:00.990Z,17.52
2018-08-11T03:03:27.132Z,17.52
2018-08-11T03:03:53.260Z,17.48
2018-08-11T03:04:19.390Z,17.48
2018-08-11T03:04:45.525Z,17.48
2018-08-11T03:05:11.731Z,17.52
2018-08-11T03:05:37.913Z,17.54
2018-08-11T03:06:04.062Z,17.44
2018-08-11T03:06:30.205Z,17.49
2018-08-11T03:06:56.406Z,17.42
2018-08-11T03:07:22.544Z,17.39
2018-08-11T03:07:48.675Z,17.41
2018-08-11T03:08:14.813Z,17.33
2018-08-11T03:08:40.947Z,17.33
2018-08-11T03:09:07.131Z,17.34
2018-08-11T03:09:33.296Z,17.3
2018-08-11T03:09:59.445Z,17.36
2018-08-11T03:10:25.614Z,17.38
2018-08-11T03:10:51.794Z,17.46
2018-08-11T03:11:17.976Z,17.44
2018-08-11T03:11:44.148Z,17.36
2018-08-11T03:12:10.316Z,17.36
2018-08-11T03:12:36.484Z,17.38
2018-08-11T03:13:02.639Z,17.42
2018-08-11T03:13:28.807Z,17.34
2018-08-11T03:13:54.994Z,17.38
2018-08-11T03:14:21.156Z,17.41
2018-08-11T03:14:47.338Z,17.31
2018-08-11T03:15:13.472Z,17.41
2018-08-11T03:15:39.637Z,17.36
2018-08-11T03:16:05.786Z,17.3
2018-08-11T03:16:31.939Z,17.39
2018-08-11T03:16:58.145Z,17.33
2018-08-11T03:17:24.276Z,17.33
2018-08-11T03:17:50.460Z,17.29
2018-08-11T03:18:16.612Z,17.3
2018-08-11T03:18:42.742Z,17.31
2018-08-11T03:19:08.876Z,17.29
2018-08-11T03:19:35.033Z,17.33
2018-08-11T03:20:01.171Z,17.33
2018-08-11T03:20:27.349Z,17.36
2018-08-11T03:20:53.495Z,17.39
2018-08-11T03:21:19.675Z,17.38
2018-08-11T03:21:45.845Z,17.41
2018-08-11T03:22:11.997Z,17.38
2018-08-11T03:22:38.159Z,17.34
2018-08-11T03:23:04.309Z,17.39
2018-08-11T03:23:30.470Z,17.45
2018-08-11T03:23:56.668Z,17.52
2018-08-11T03:24:22.798Z,17.44
2018-08-11T03:24:48.974Z,17.41
2018-08-11T03:25:15.103Z,17.44
2018-08-11T03:25:41.263Z,17.39
2018-08-11T03:26:07.397Z,17.44
2018-08-11T03:26:33.537Z,17.42
2018-08-11T03:26:59.700Z,17.36
2018-08-11T03:27:25.911Z,17.34
2018-08-11T03:27:52.091Z,17.31
2018-08-11T03:28:18.238Z,17.36
2018-08-11T03:28:44.385Z,17.36
2018-08-11T03:29:10.522Z,17.39
2018-08-11T03:29:36.656Z,17.38
2018-08-11T03:30:02.798Z,17.41
2018-08-11T03:30:28.975Z,17.38
2018-08-11T03:30:55.131Z,17.36
2018-08-11T03:31:21.306Z,17.39
2018-08-11T03:31:47.488Z,17.31
2018-08-11T03:32:13.645Z,17.41
2018-08-11T03:32:39.856Z,17.42
2018-08-11T03:33:05.981Z,17.34
2018-08-11T03:33:32.118Z,17.38
2018-08-11T03:33:58.248Z,17.39
2018-08-11T03:34:24.409Z,17.39
2018-08-11T03:34:50.541Z,17.44
2018-08-11T03:35:16.679Z,17.33
2018-08-11T03:35:42.816Z,17.41
2018-08-11T03:36:08.949Z,17.42
2018-08-11T03:36:35.101Z,17.38
2018-08-11T03:37:01.239Z,17.41
2018-08-11T03:37:27.376Z,17.34
2018-08-11T03:37:53.505Z,17.44
2018-08-11T03:38:19.641Z,17.42
2018-08-11T03:38:45.775Z,17.42
2018-08-11T03:39:11.911Z,17.34
2018-08-11T03:39:38.044Z,17.41
2018-08-11T03:40:04.172Z,17.38
2018-08-11T03:40:30.338Z,17.34
2018-08-11T03:40:56.470Z,17.36
2018-08-11T03:41:22.607Z,17.27
2018-08-11T03:41:48.763Z,17.34
2018-08-11T03:42:14.908Z,17.3
2018-08-11T03:42:41.039Z,17.29
2018-08-11T03:43:07.174Z,17.29
2018-08-11T03:43:33.313Z,17.26
2018-08-11T03:43:59.443Z,17.29
2018-08-11T03:44:25.580Z,17.26
2018-08-11T03:44:51.713Z,17.24
2018-08-11T03:45:17.861Z,17.27
2018-08-11T03:45:43.991Z,17.33
2018-08-11T03:46:10.213Z,17.3
2018-08-11T03:46:36.266Z,17.31
2018-08-11T03:47:02.399Z,17.27
2018-08-11T03:47:28.533Z,17.31
2018-08-11T03:47:54.675Z,17.27
2018-08-11T03:48:20.809Z,17.27
2018-08-11T03:48:46.940Z,17.3
2018-08-11T03:49:13.076Z,17.31
2018-08-11T03:49:39.245Z,17.26
2018-08-11T03:50:05.380Z,17.29
2018-08-11T03:50:31.533Z,17.16
2018-08-11T03:50:57.692Z,17.27
2018-08-11T03:51:23.827Z,17.16
2018-08-11T03:51:49.960Z,17.2
2018-08-11T03:52:16.097Z,17.11
2018-08-11T03:52:42.230Z,17.06
2018-08-11T03:53:08.356Z,17.02
2018-08-11T03:53:34.519Z,16.96
2018-08-11T03:54:00.662Z,17.02
2018-08-11T03:54:26.792Z,17.06
2018-08-11T03:54:52.927Z,17.06
2018-08-11T03:55:19.065Z,16.99
2018-08-11T03:55:45.204Z,17.04
2018-08-11T03:56:11.339Z,17.04
2018-08-11T03:56:37.469Z,16.99
2018-08-11T03:57:03.611Z,17.11
2018-08-11T03:57:29.742Z,17.15
2018-08-11T03:57:55.881Z,17.06
2018-08-11T03:58:22.013Z,17.09
2018-08-11T03:58:48.173Z,17.09
2018-08-11T03:59:14.307Z,17.12
2018-08-11T03:59:40.443Z,17.06
2018-08-11T04:00:06.582Z,17.19
2018-08-11T04:00:32.713Z,17.14
2018-08-11T04:00:58.867Z,17.08
2018-08-11T04:01:25.013Z,17.15
2018-08-11T04:01:51.170Z,17.08
2018-08-11T04:02:17.312Z,17.11
2018-08-11T04:02:43.447Z,17.12
2018-08-11T04:03:09.601Z,17.11
2018-08-11T04:03:35.741Z,17.15
2018-08-11T04:04:01.887Z,17.06
2018-08-11T04:04:28.022Z,17.14
2018-08-11T04:04:54.150Z,17.06
2018-08-11T04:05:20.286Z,17.08
2018-08-11T04:05:46.417Z,17.12
2018-08-11T04:06:12.571Z,17.08
2018-08-11T04:06:38.820Z,17.14
2018-08-11T04:07:04.838Z,17.09
2018-08-11T04:07:31.044Z,16.99
2018-08-11T04:07:57.178Z,17.08
2018-08-11T04:08:23.310Z,17.04
2018-08-11T04:08:49.438Z,17.04
2018-08-11T04:09:15.575Z,17.05
2018-08-11T04:09:41.706Z,16.99
2018-08-11T04:10:07.845Z,16.97
2018-08-11T04:10:33.984Z,16.9
2018-08-11T04:11:00.123Z,16.84
2018-08-11T04:11:26.255Z,16.76
2018-08-11T04:11:52.384Z,16.81
2018-08-11T04:12:18.515Z,16.78
2018-08-11T04:12:44.670Z,16.79
2018-08-11T04:13:10.804Z,16.84
2018-08-11T04:13:36.939Z,16.81
2018-08-11T04:14:03.068Z,16.78
2018-08-11T04:14:29.224Z,16.72
2018-08-11T04:14:55.351Z,16.72
2018-08-11T04:15:21.490Z,16.78
2018-08-11T04:15:47.640Z,16.79
2018-08-11T04:16:13.779Z,16.76
2018-08-11T04:16:39.908Z,16.79
2018-08-11T04:17:06.044Z,16.78
2018-08-11T04:17:32.181Z,16.79
2018-08-11T04:17:58.324Z,16.76
2018-08-11T04:18:24.445Z,16.76
2018-08-11T04:18:50.585Z,16.78
2018-08-11T04:19:16.713Z,16.83
2018-08-11T04:19:42.849Z,16.87
2018-08-11T04:20:08.984Z,16.78
2018-08-11T04:20:35.117Z,16.83
2018-08-11T04:21:01.256Z,16.83
2018-08-11T04:21:27.386Z,16.86
2018-08-11T04:21:53.516Z,16.84
2018-08-11T04:22:19.654Z,16.84
2018-08-11T04:22:45.819Z,16.78
2018-08-11T04:23:11.972Z,16.79
2018-08-11T04:23:38.132Z,16.76
2018-08-11T04:24:04.261Z,16.83
2018-08-11T04:24:30.398Z,16.71
2018-08-11T04:24:56.526Z,16.86
2018-08-11T04:25:22.681Z,16.74
2018-08-11T04:25:48.815Z,16.78
2018-08-11T04:26:14.979Z,16.83
2018-08-11T04:26:41.090Z,16.79
2018-08-11T04:27:07.243Z,16.83
2018-08-11T04:27:33.377Z,16.71
2018-08-11T04:27:59.532Z,16.75
2018-08-11T04:28:25.695Z,16.75
2018-08-11T04:28:51.849Z,16.74
2018-08-11T04:29:17.983Z,16.74
2018-08-11T04:29:44.119Z,16.79
2018-08-11T04:30:10.246Z,16.83
2018-08-11T04:30:36.396Z,16.81
2018-08-11T04:31:02.535Z,16.79
2018-08-11T04:31:28.672Z,16.75
2018-08-11T04:31:54.803Z,16.76
2018-08-11T04:32:20.932Z,16.76
2018-08-11T04:32:47.073Z,16.75
2018-08-11T04:33:13.218Z,16.74
2018-08-11T04:33:39.354Z,16.75
2018-08-11T04:34:05.482Z,16.75
2018-08-11T04:34:31.616Z,16.81
2018-08-11T04:34:57.761Z,16.81
2018-08-11T04:35:23.891Z,16.81
2018-08-11T04:35:50.021Z,16.79
2018-08-11T04:36:16.153Z,16.79
2018-08-11T04:36:42.281Z,16.84
2018-08-11T04:37:08.418Z,16.79
2018-08-11T04:37:34.550Z,16.84
2018-08-11T04:38:00.681Z,16.87
2018-08-11T04:38:26.812Z,16.94
2018-08-11T04:38:52.942Z,16.93
2018-08-11T04:39:19.124Z,16.87
2018-08-11T04:39:45.263Z,16.79
2018-08-11T04:40:11.395Z,16.81
2018-08-11T04:40:37.527Z,16.83
2018-08-11T04:41:03.662Z,16.81
2018-08-11T04:41:29.819Z,16.79
2018-08-11T04:41:55.961Z,16.83
2018-08-11T04:42:22.081Z,16.79
2018-08-11T04:42:48.223Z,16.78
2018-08-11T04:43:14.357Z,16.78
2018-08-11T04:43:40.487Z,16.76
2018-08-11T04:44:06.641Z,16.78
2018-08-11T04:44:32.778Z,16.81
2018-08-11T04:44:58.908Z,16.86
2018-08-11T04:45:25.061Z,16.78
2018-08-11T04:45:51.196Z,16.76
2018-08-11T04:46:17.355Z,16.87
2018-08-11T04:46:43.485Z,16.9
2018-08-11T04:47:09.634Z,16.91
2018-08-11T04:47:35.772Z,16.94
2018-08-11T04:48:01.905Z,16.89
2018-08-11T04:48:28.041Z,16.91
2018-08-11T04:48:54.176Z,16.84
2018-08-11T04:49:20.314Z,16.91
2018-08-11T04:49:46.448Z,16.9
2018-08-11T04:50:12.610Z,16.9
2018-08-11T04:50:38.743Z,16.84
2018-08-11T04:51:04.884Z,16.87
2018-08-11T04:51:31.021Z,16.9
2018-08-11T04:51:57.204Z,16.83
2018-08-11T04:52:23.341Z,16.94
2018-08-11T04:52:49.492Z,16.81
2018-08-11T04:53:15.647Z,16.87
2018-08-11T04:53:41.812Z,16.87
2018-08-11T04:54:07.942Z,16.89
2018-08-11T04:54:34.080Z,16.9
2018-08-11T04:55:00.245Z,16.86
2018-08-11T04:55:26.375Z,16.94
2018-08-11T04:55:52.501Z,16.94
2018-08-11T04:56:18.640Z,16.96
2018-08-11T04:56:44.774Z,16.86
2018-08-11T04:57:10.910Z,16.91
2018-08-11T04:57:37.036Z,16.89
2018-08-11T04:58:03.168Z,16.9
2018-08-11T04:58:29.306Z,16.94
2018-08-11T04:58:55.439Z,16.84
2018-08-11T04:59:21.597Z,16.91
2018-08-11T04:59:47.732Z,16.93
2018-08-11T05:00:13.870Z,16.83
2018-08-11T05:00:40.003Z,16.86
2018-08-11T05:01:06.145Z,16.91
2018-08-11T05:01:32.277Z,16.86
2018-08-11T05:01:58.411Z,16.79
2018-08-11T05:02:24.532Z,16.89
2018-08-11T05:02:50.663Z,16.9
2018-08-11T05:03:16.803Z,16.9
2018-08-11T05:03:42.936Z,16.87
2018-08-11T05:04:09.067Z,16.93
2018-08-11T05:04:35.201Z,16.99
2018-08-11T05:05:01.341Z,16.89
2018-08-11T05:05:27.496Z,17.01
2018-08-11T05:05:53.630Z,16.84
2018-08-11T05:06:19.764Z,16.87
2018-08-11T05:06:45.906Z,16.91
2018-08-11T05:07:12.039Z,17.01
2018-08-11T05:07:38.172Z,16.99
2018-08-11T05:08:04.305Z,17.02
2018-08-11T05:08:30.441Z,17.01
2018-08-11T05:08:56.577Z,17.01
2018-08-11T05:09:22.710Z,16.97
2018-08-11T05:09:48.872Z,16.97
2018-08-11T05:10:15.002Z,17.02
2018-08-11T05:10:41.155Z,17.05
2018-08-11T05:11:07.298Z,16.96
2018-08-11T05:11:33.452Z,16.99
2018-08-11T05:11:59.610Z,17.05
2018-08-11T05:12:25.756Z,16.94
2018-08-11T05:12:51.884Z,17.12
2018-08-11T05:13:18.024Z,17.11
2018-08-11T05:13:44.180Z,17.12
2018-08-11T05:14:10.315Z,17.11
2018-08-11T05:14:36.440Z,17.11
2018-08-11T05:15:02.580Z,17.09
2018-08-11T05:15:28.729Z,17.12
2018-08-11T05:15:54.881Z,17.09
2018-08-11T05:16:21.023Z,17.12
2018-08-11T05:16:47.201Z,17.09
2018-08-11T05:17:13.361Z,17.11
2018-08-11T05:17:39.491Z,17.06
2018-08-11T05:18:05.644Z,17.08
2018-08-11T05:18:31.778Z,17.11
2018-08-11T05:18:57.915Z,17.2
2018-08-11T05:19:24.051Z,17.19
2018-08-11T05:19:50.242Z,17.09
2018-08-11T05:20:16.338Z,17.16
2018-08-11T05:20:42.472Z,17.19
2018-08-11T05:21:08.635Z,17.16
2018-08-11T05:21:34.765Z,17.15
2018-08-11T05:22:00.900Z,17.15
2018-08-11T05:22:27.037Z,17.16
2018-08-11T05:22:53.196Z,17.23
2018-08-11T05:23:19.328Z,17.24
2018-08-11T05:23:45.456Z,17.29
2018-08-11T05:24:11.590Z,17.16
2018-08-11T05:24:37.727Z,17.26
2018-08-11T05:25:03.868Z,17.24
2018-08-11T05:25:30.024Z,17.31
2018-08-11T05:25:56.155Z,17.27
2018-08-11T05:26:22.303Z,17.26
2018-08-11T05:26:48.458Z,17.15
2018-08-11T05:27:14.593Z,17.15
2018-08-11T05:27:40.751Z,17.16
2018-08-11T05:28:06.907Z,17.14
2018-08-11T05:28:33.045Z,17.23
2018-08-11T05:28:59.180Z,17.22
2018-08-11T05:29:25.327Z,17.16
2018-08-11T05:29:51.451Z,17.19
2018-08-11T05:30:17.585Z,17.23
2018-08-11T05:30:43.739Z,17.19
2018-08-11T05:31:09.873Z,17.2
2018-08-11T05:31:36.031Z,17.24
2018-08-11T05:32:02.166Z,17.26
2018-08-11T05:32:28.320Z,17.16
2018-08-11T05:32:54.452Z,17.22
2018-08-11T05:33:20.709Z,17.23
2018-08-11T05:33:46.739Z,17.26
2018-08-11T05:34:12.900Z,17.19
2018-08-11T05:34:39.029Z,17.33
2018-08-11T05:35:05.194Z,17.26
2018-08-11T05:35:31.320Z,17.26
2018-08-11T05:35:57.452Z,17.2
2018-08-11T05:36:23.610Z,17.14
2018-08-11T05:36:49.746Z,17.29
2018-08-11T05:37:15.880Z,17.23
2018-08-11T05:37:42.018Z,17.31
2018-08-11T05:38:08.152Z,17.23